Louisville, KY (40223)

8:13 AM EDT op 25 september 2016 (GMT -0400)
Owl Creek Country Club | | Change Station

Hoogte 730 ft 38.28 °N, 85.53 °W | Updated 38 seconds ago

Clear
Helder
67.2 °F
Voelt als 67.2 °F
N
0.0
Wind Variabel Wind van oost
Gusts 0.0 mijl/u

Vandaag
Hoog -- | Laag -- °F
--% Kans op neerslag
Gisteren
Hoog -- | Laag -- °F
Precip. -- inches
Druk 30.10 inches
Zicht 7.0 mijlen
Wolken Helder
Dauwpunt 66 °F
Vochtigheid 94%
Neerslag 0.00 inches
Dikte sneeuw Niet beschikbaar.
7:32 AM 7:33 PM
Afnemende halvemaan, 28% visible
METAR KLOU 251153Z 34003KT 7SM CLR 21/18 A3012 RMK AO2 SLP193 T02060178 10239 20194 53007
Druk 30.10 inches
Zicht 7.0 mijlen
Wolken Helder
Dauwpunt 66 °F
Vochtigheid 94%
Neerslag 0.00 inches
Dikte sneeuw Niet beschikbaar.
7:32 AM 7:33 PM
Afnemende halvemaan, 28% visible
METAR KLOU 251153Z 34003KT 7SM CLR 21/18 A3012 RMK AO2 SLP193 T02060178 10239 20194 53007

10-Day Weather Forecast

Almanac

Astronomie

Sep. 25, 2016 Opkomst Ondergang
Werkelijke tijd
Burgerlijke schemering
Nautische schemering
Astronomische schemering
Maan
Golflengte van het zichtbare licht
Daglengte
Tomorrow will be .
, % of the Moon is Illuminated

Extremen vandaag

State Highs State Lows

Community

WunderPhotos

Upload Photos

1,941,583 foto’s ge-upload!

WunderBlog® & News

Nearby

Luchtkwaliteit

  Luchtkwaliteit LK-index Verontreinigende stof
Not available.

Dikte sneeuw

Station Depth Geometrische hoogte

Aardbevingen

Stad Distance Mag. Time & Date
Minimum magnitude displayed is 2.5.

Watertemperatuur langs de kust

Plaats Temperatuur

Stations

Nabije weerstations

Locatie station Temp. Gevoelstemperatuur Dauwpunt Vochtigheid Wind Precip. Hoogte Geactualiseerd Type
                   

Watches & Warnings

There are currently no watches in effect.